Pagina principale
METAR-TAF:

METAR-TAF

Aeroporti :

Aeroporto di Bari-Palese

Bari, Italia

latitudine: 41-08N, longitudine: 016-47E, altezza: 34 m

Osservazione

Il bollettino è stato emesso 20 minuti fa, alle 00:50 UTC
Vento 6 kt da est/nord-est
Temperature 20°C
Umidità 56%
Pressione 1016 hPa
Visibilità 10 km o più
nessuna nube inferiore a 1500 m e nessun cumulonembo

METAR: LIBD 150050Z 07006KT CAVOK 20/11 Q1016

Ora: 03:10 (01:10 UTC)

Previsione

Il bollettino è stato emesso 2 ore e 10 minuti fa, alle 23:00 UTC
Previsione valida dal 15 alle 00 UTC al 15 alle 24 UTC
Vento 8 kt da nord-ovest
Visibilità 10 km o più
nessuna nube inferiore a 1500 m e nessun cumulonembo
Evoluzione graduale
dal 15 alle 21 UTC al 15 alle 23 UTC
Vento 10 kt da nord

TAF: LIBD 142300Z 1500/1524 31008KT CAVOK BECMG 1521/1523 01010KT

Osservazioni e previsioni meteorologiche di più di 4000 aeroporti (messaggi METAR e TAF).

Le stazioni disponibili sono rappresentate dai dischi gialli e rossi sulla carta.

Puntare il mouse per vedere il nome della stazione.

Clicca sopra per visualizzare le osservazioni e previsioni meteorologiche.

Per cambiare la mappa : fare clic sui pulsanti verdi con una croce nera per ingrandire, il pulsante verde con un trattino per diminuire, o sulla freccia verde per le mappe adiacenti.


METAR-TAF: